Data for 12/09/2009

Time Sea-Level Adjusted Pressure Absolute Pressure Temperature Relative Humidity Dew Point   
(mb) (inHg) (mb) (inHg) (C) (F) (%) (C) (F)
00:05 1013 29.91 842 24.86 -26 -14.9 75 -29.2 -20.5
00:10 1013 29.91 842 24.86 -26.2 -15.2 75 -29.4 -21
00:15 1013 29.91 842 24.86 -26.3 -15.3 77 -29.2 -20.5
00:20 1013 29.91 842 24.86 -26 -14.8 75 -29.2 -20.5
00:25 1013 29.91 842 24.86 -25.8 -14.5 79 -28.5 -19.3
00:30 1013 29.91 842 24.86 -25.5 -13.9 76 -28.6 -19.4
00:35 1013 29.91 842 24.86 -25.5 -13.9 75 -28.7 -19.6
00:40 1013 29.91 842 24.86 -25.6 -14 74 -28.9 -20.1
00:45 1013 29.91 842 24.86 -26 -14.8 74 -29.4 -20.9
00:50 1013 29.91 842 24.86 -26.4 -15.4 75 -29.5 -21.1
00:55 1013 29.91 842 24.86 -26.3 -15.3 79 -28.9 -20.1
01:00 1013 29.91 842 24.86 -26.1 -14.9 80 -28.6 -19.5
01:05 1013 29.91 842 24.86 -25.9 -14.6 77 -28.7 -19.7
01:10 1013 29.91 842 24.86 -26.1 -14.9 75 -29.2 -20.6
01:15 1013 29.91 842 24.86 -26.4 -15.5 78 -29.2 -20.6
01:20 1013 29.91 842 24.86 -26.2 -15.2 76 -29.2 -20.6
01:25 1013 29.91 842 24.86 -26.2 -15.1 75 -29.3 -20.8
01:30 1013 29.91 842 24.86 -26.2 -15.2 77 -29.1 -20.4
01:35 1013 29.91 842 24.86 -25.9 -14.7 77 -28.9 -20
01:40 1012 29.88 842 24.86 -26 -14.8 75 -29.2 -20.5
01:45 1012 29.88 842 24.86 -26.3 -15.3 76 -29.4 -20.9
01:50 1012 29.88 842 24.86 -26.3 -15.4 77 -29.3 -20.7
01:55 1012 29.88 842 24.86 -26.4 -15.5 76 -29.4 -21
02:00 1013 29.91 842 24.86 -26.5 -15.7 77 -29.4 -20.9
02:05 1013 29.91 842 24.86 -26.4 -15.6 78 -29.2 -20.6
02:10 1012 29.88 842 24.86 -26.3 -15.3 78 -29.1 -20.4
02:15 1012 29.88 842 24.86 -26.2 -15.2 77 -29.2 -20.5
02:20 1012 29.88 842 24.86 -26.3 -15.3 77 -29.2 -20.5
02:25 1012 29.88 842 24.86 -26.4 -15.4 77 -29.3 -20.8
02:30 1012 29.88 842 24.86 -26.4 -15.5 77 -29.3 -20.7
02:35 1012 29.88 842 24.86 -26.4 -15.6 80 -29 -20.1
02:40 1012 29.88 842 24.86 -26.3 -15.4 79 -29 -20.2
02:45 1012 29.88 842 24.86 -26.2 -15.2 79 -28.9 -20
02:50 1012 29.88 842 24.86 -26.1 -14.9 77 -28.9 -20.1
02:55 1013 29.91 842 24.86 -26 -14.9 77 -29 -20.2
03:00 1013 29.91 842 24.86 -26.2 -15.2 75 -29.3 -20.8
03:05 1013 29.91 842 24.86 -26.5 -15.6 78 -29.2 -20.6
03:10 1013 29.91 842 24.86 -26.4 -15.6 76 -29.4 -21
03:15 1013 29.91 842 24.86 -26.7 -16.1 76 -29.7 -21.5
03:20 1013 29.91 842 24.86 -26.9 -16.3 77 -29.8 -21.6
03:25 1013 29.91 842 24.86 -26.9 -16.4 80 -29.4 -20.8
03:30 1013 29.91 842 24.86 -26.6 -15.9 81 -28.9 -20.1
03:35 1013 29.91 842 24.86 -26.6 -15.9 79 -29.3 -20.7
03:40 1013 29.91 842 24.86 -27 -16.5 79 -29.5 -21.1
03:45 1013 29.91 842 24.86 -27.1 -16.7 79 -29.6 -21.4
03:50 1013 29.91 842 24.86 -26.9 -16.3 81 -29.2 -20.6
03:55 1012 29.88 842 24.86 -26.7 -16 78 -29.5 -21.1
04:00 1012 29.88 842 24.86 -26.8 -16.3 79 -29.4 -20.9
04:05 1012 29.88 842 24.86 -26.6 -15.9 79 -29.3 -20.7
04:10 1012 29.88 842 24.86 -26.4 -15.5 78 -29.1 -20.5
04:15 1012 29.88 842 24.86 -26.4 -15.4 78 -29.1 -20.3
04:20 1012 29.88 842 24.86 -26.3 -15.3 78 -29.1 -20.3
04:25 1012 29.88 842 24.86 -26.7 -16.1 76 -29.8 -21.6
04:30 1012 29.88 842 24.86 -27.2 -16.9 77 -30 -22
04:35 1012 29.88 841 24.83 -27 -16.5 78 -29.7 -21.5
04:40 1012 29.88 841 24.83 -26.7 -16.1 77 -29.5 -21.2
04:45 1012 29.88 841 24.83 -26.6 -15.9 78 -29.4 -20.9
04:50 1012 29.88 841 24.83 -26.5 -15.7 77 -29.4 -21
04:55 1012 29.88 841 24.83 -26.4 -15.4 77 -29.2 -20.6
05:00 1012 29.88 841 24.83 -26.2 -15.2 76 -29.2 -20.6
05:05 1012 29.88 841 24.83 -26.1 -14.9 77 -29 -20.1
05:10 1012 29.88 841 24.83 -26.1 -15 76 -29.2 -20.6
05:15 1012 29.88 841 24.83 -26.2 -15.2 76 -29.2 -20.6
05:20 1012 29.88 841 24.83 -25.9 -14.7 78 -28.6 -19.6
05:25 1012 29.88 841 24.83 -25.6 -14 77 -28.5 -19.3
05:30 1012 29.88 841 24.83 -25.7 -14.2 77 -28.6 -19.4
05:35 1012 29.88 841 24.83 -25.8 -14.4 76 -28.8 -19.9
05:40 1012 29.88 841 24.83 -25.8 -14.4 76 -28.8 -19.9
05:45 1012 29.88 841 24.83 -25.7 -14.3 77 -28.7 -19.6
05:50 1012 29.88 841 24.83 -25.6 -14.1 76 -28.6 -19.5
05:55 1012 29.88 841 24.83 -25.6 -14.1 77 -28.5 -19.4
06:00 1012 29.88 841 24.83 -25.4 -13.8 76 -28.5 -19.2
06:05 1012 29.88 841 24.83 -25.2 -13.4 77 -28.2 -18.8
06:10 1012 29.88 841 24.83 -25.1 -13.1 77 -28 -18.5
06:15 1012 29.88 841 24.83 -24.9 -12.9 78 -27.7 -17.9
06:20 1012 29.88 841 24.83 -24.7 -12.5 76 -27.9 -18.2
06:25 1012 29.88 841 24.83 -24.6 -12.3 75 -27.9 -18.1
06:30 1012 29.88 841 24.83 -24.3 -11.7 76 -27.4 -17.4
06:35 1012 29.88 841 24.83 -24.1 -11.3 75 -27.4 -17.3
06:40 1012 29.88 841 24.83 -24.1 -11.4 75 -27.3 -17.2
06:45 1012 29.88 841 24.83 -24.2 -11.5 77 -27.2 -16.9
06:50 1012 29.88 841 24.83 -24.2 -11.5 76 -27.3 -17.1
06:55 1012 29.88 841 24.83 -24 -11.2 77 -27 -16.6
07:00 1012 29.88 841 24.83 -23.7 -10.6 75 -26.9 -16.5
07:05 1012 29.88 841 24.83 -23.5 -10.3 75 -26.9 -16.3
07:10 1012 29.88 841 24.83 -23.4 -10.2 75 -26.7 -16
07:15 1012 29.88 841 24.83 -23.4 -10 75 -26.7 -16
07:20 1012 29.88 841 24.83 -23.2 -9.8 74 -26.7 -16
07:25 1012 29.88 841 24.83 -23.1 -9.6 75 -26.4 -15.5
07:30 1012 29.88 841 24.83 -23 -9.3 75 -26.2 -15.2
07:35 1012 29.88 841 24.83 -23.2 -9.8 76 -26.3 -15.3
07:40 1012 29.88 841 24.83 -23.4 -10.2 78 -26.2 -15.2
07:45 1012 29.88 841 24.83 -23.3 -10 79 -26.1 -14.9
07:50 1012 29.88 841 24.83 -22.9 -9.2 78 -25.7 -14.3
07:55 1012 29.88 841 24.83 -22.8 -9 77 -25.7 -14.2
08:00 1012 29.88 841 24.83 -22.7 -8.9 77 -25.8 -14.4
08:05 1012 29.88 841 24.83 -23 -9.4 79 -25.7 -14.3
08:10 1012 29.88 841 24.83 -23.2 -9.8 78 -26 -14.8
08:15 1012 29.88 841 24.83 -23.1 -9.6 79 -25.8 -14.5
08:20 1012 29.88 841 24.83 -23.1 -9.6 79 -25.9 -14.6
08:25 1012 29.88 841 24.83 -23.3 -10 79 -26.1 -14.9
08:30 1012 29.88 841 24.83 -23.3 -10 80 -25.9 -14.6
08:35 1012 29.88 841 24.83 -23 -9.4 80 -25.5 -13.9
08:40 1012 29.88 841 24.83 -22.7 -8.8 80 -25.2 -13.4
08:45 1012 29.88 841 24.83 -22.5 -8.4 79 -25.2 -13.3
08:50 1012 29.88 841 24.83 -22.4 -8.4 78 -25.3 -13.6
08:55 1012 29.88 841 24.83 -22.3 -8.2 79 -25 -13
09:00 1012 29.88 841 24.83 -22.1 -7.7 79 -24.9 -12.7
09:05 1012 29.88 841 24.83 -21.8 -7.3 78 -24.8 -12.6
09:10 1012 29.88 841 24.83 -22 -7.6 79 -24.8 -12.6
09:15 1012 29.88 841 24.83 -22 -7.7 79 -24.7 -12.5
09:20 1012 29.88 841 24.83 -21.7 -7.1 79 -24.5 -12
09:25 1012 29.88 841 24.83 -21.3 -6.3 79 -24 -11.3
09:30 1012 29.88 841 24.83 -20.9 -5.7 77 -23.9 -11.1
09:35 1012 29.88 841 24.83 -20.8 -5.5 78 -23.8 -10.8
09:40 1012 29.88 841 24.83 -20.7 -5.2 77 -23.7 -10.7
09:45 1012 29.88 841 24.83 -20.6 -5 74 -24 -11.2
09:50 1012 29.88 841 24.83 -20.7 -5.2 75 -24 -11.2
09:55 1012 29.88 841 24.83 -20.7 -5.3 75 -24.1 -11.3
10:00 1012 29.88 841 24.83 -20.7 -5.3 77 -23.8 -10.9
10:05 1012 29.88 842 24.86 -20.4 -4.6 74 -23.9 -11
10:10 1012 29.88 842 24.86 -20.3 -4.5 75 -23.7 -10.6
10:15 1012 29.88 842 24.86 -20.1 -4.2 75 -23.4 -10.2
10:20 1012 29.88 842 24.86 -20 -4.1 75 -23.4 -10.2
10:25 1012 29.88 842 24.86 -20.1 -4.2 76 -23.4 -10.1
10:30 1012 29.88 842 24.86 -20 -4 77 -23.1 -9.6
10:35 1013 29.91 842 24.86 -20 -4 75 -23.4 -10.1
10:40 1013 29.91 842 24.86 -20.2 -4.3 75 -23.5 -10.4
10:45 1013 29.91 842 24.86 -20.3 -4.5 75 -23.6 -10.6
10:50 1013 29.91 842 24.86 -20.7 -5.2 77 -23.7 -10.7
10:55 1013 29.91 842 24.86 -20.5 -4.8 77 -23.5 -10.4
11:00 1012 29.88 842 24.86 -20.1 -4.1 77 -23.2 -9.8
11:05 1012 29.88 842 24.86 -19.6 -3.3 76 -22.8 -9.1
11:10 1012 29.88 842 24.86 -19.5 -3.1 77 -22.6 -8.6
11:15 1012 29.88 841 24.83 -19.5 -3.1 79 -22.3 -8.2
11:20 1012 29.88 841 24.83 -19.2 -2.5 78 -22.2 -7.9
11:25 1012 29.88 841 24.83 -19 -2.1 77 -22 -7.7
11:30 1012 29.88 841 24.83 -18.6 -1.4 76 -21.9 -7.3
11:35 1012 29.88 841 24.83 -18.3 -0.9 76 -21.5 -6.8
11:40 1012 29.88 841 24.83 -18.1 -0.6 77 -21.2 -6.2
11:45 1012 29.88 841 24.83 -17.9 -0.2 76 -21.1 -5.9
11:50 1012 29.88 841 24.83 -18.2 -0.8 77 -21.3 -6.4
11:55 1012 29.88 841 24.83 -18.5 -1.3 78 -21.5 -6.7
12:00 1012 29.88 841 24.83 -18.5 -1.3 77 -21.6 -6.8
12:05 1012 29.88 841 24.83 -18.8 -1.9 79 -21.6 -6.9
12:10 1012 29.88 841 24.83 -18.8 -1.8 80 -21.5 -6.6
12:15 1012 29.88 841 24.83 -18.4 -1.2 78 -21.4 -6.6
12:20 1012 29.88 841 24.83 -18.3 -0.9 77 -21.3 -6.4
12:25 1012 29.88 841 24.83 -18.2 -0.7 78 -21.2 -6.1
12:30 1012 29.88 841 24.83 -17.8 -0.1 78 -20.8 -5.5
12:35 1012 29.88 841 24.83 -17.6 0.4 76 -20.8 -5.5
12:40 1012 29.88 841 24.83 -17.5 0.5 76 -20.8 -5.4
12:45 1012 29.88 841 24.83 -17.2 1 75 -20.6 -5.1
12:50 1012 29.88 841 24.83 -17.3 0.9 75 -20.7 -5.2
12:55 1012 29.88 841 24.83 -17.1 1.3 74 -20.6 -5.2
13:00 1012 29.88 841 24.83 -16.9 1.6 74 -20.5 -5
13:05 1012 29.88 841 24.83 -16.7 2 72 -20.5 -5
13:10 1012 29.88 841 24.83 -16.7 2 73 -20.4 -4.8
13:15 1012 29.88 841 24.83 -16.3 2.6 73 -20.2 -4.3
13:20 1012 29.88 841 24.83 -16.2 2.9 72 -20.1 -4.2
13:25 1012 29.88 841 24.83 -16.3 2.7 72 -20.3 -4.5
13:30 1012 29.88 841 24.83 -16.4 2.5 73 -20.1 -4.2
13:35 1012 29.88 841 24.83 -16.3 2.7 69 -20.7 -5.2
13:40 1012 29.88 841 24.83 -16.2 2.8 72 -20.2 -4.4
13:45 1012 29.88 841 24.83 -16.1 3.1 71 -20.1 -4.3
13:50 1012 29.88 841 24.83 -15.8 3.6 67 -20.5 -5
13:55 1012 29.88 841 24.83 -15.9 3.4 68 -20.5 -5
14:00 1012 29.88 841 24.83 -15.6 3.9 66 -20.6 -5.1
14:05 1012 29.88 841 24.83 -15.3 4.4 65 -20.4 -4.7
14:10 1012 29.88 841 24.83 -16.3 2.7 69 -20.6 -5.2
14:15 1012 29.88 841 24.83 -16.8 1.8 70 -21 -5.8
14:20 1012 29.88 841 24.83 -16.1 3 67 -21 -5.7
14:25 1012 29.88 841 24.83 -15 4.9 63 -20.6 -5
14:30 1012 29.88 841 24.83 -14.6 5.7 62 -20.3 -4.6
14:35 1012 29.88 841 24.83 -14.3 6.2 59 -20.7 -5.3
14:40 1012 29.88 841 24.83 -14 6.8 58 -20.6 -5.1
14:45 1012 29.88 841 24.83 -13.7 7.3 57 -20.6 -5.1
14:50 1012 29.88 841 24.83 -13.8 7.1 57 -20.6 -5.1
14:55 1012 29.88 841 24.83 -14 6.8 57 -20.8 -5.4
15:00 1012 29.88 841 24.83 -14.2 6.5 58 -20.8 -5.5
15:05 1012 29.88 841 24.83 -15.4 4.4 64 -20.8 -5.4
15:10 1012 29.88 841 24.83 -15.6 3.8 61 -21.5 -6.7
15:15 1012 29.88 841 24.83 -15.2 4.6 60 -21.4 -6.5
15:20 1012 29.88 841 24.83 -15.2 4.7 60 -21.4 -6.5
15:25 1012 29.88 841 24.83 -14.8 5.3 58 -21.3 -6.3
15:30 1012 29.88 841 24.83 -15 5 59 -21.3 -6.4
15:35 1012 29.88 841 24.83 -15.3 4.5 59 -21.6 -6.9
15:40 1012 29.88 841 24.83 -15.2 4.7 58 -21.7 -7.1
15:45 1012 29.88 841 24.83 -15.6 4 58 -22 -7.7
15:50 1012 29.88 841 24.83 -16.1 3.1 59 -22.3 -8.1
15:55 1012 29.88 842 24.86 -16.6 2.1 61 -22.5 -8.5
16:00 1013 29.91 842 24.86 -16.9 1.7 61 -22.7 -8.9
16:05 1013 29.91 842 24.86 -17 1.5 61 -22.7 -8.9
16:10 1013 29.91 842 24.86 -16.9 1.5 61 -22.8 -9
16:15 1013 29.91 842 24.86 -16.9 1.6 60 -22.8 -9.1
16:20 1013 29.91 842 24.86 -16.8 1.9 57 -23.3 -10
16:25 1013 29.91 842 24.86 -16.6 2.1 56 -23.4 -10.1
16:30 1013 29.91 842 24.86 -16.5 2.3 57 -23.2 -9.8
16:35 1013 29.91 842 24.86 -16.3 2.6 56 -23.2 -9.8
16:40 1013 29.91 842 24.86 -16.5 2.3 57 -23.2 -9.7
16:45 1013 29.91 842 24.86 -17 1.4 61 -22.8 -9.1
16:50 1013 29.91 842 24.86 -17.2 1.1 63 -22.6 -8.6
16:55 1013 29.91 842 24.86 -17.3 0.8 64 -22.6 -8.7
17:00 1013 29.91 842 24.86 -17.3 0.8 66 -22.2 -7.9
17:05 1013 29.91 842 24.86 -17.8 -0.1 71 -21.9 -7.5
17:10 1013 29.91 842 24.86 -18 -0.5 73 -21.7 -7.1
17:15 1013 29.91 842 24.86 -18.2 -0.7 75 -21.6 -7
17:20 1013 29.91 842 24.86 -18.3 -1 75 -21.8 -7.2
17:25 1013 29.91 842 24.86 -18.3 -1 73 -22.1 -7.7
17:30 1013 29.91 842 24.86 -18.6 -1.4 74 -22.2 -7.9
17:35 1013 29.91 842 24.86 -19.1 -2.4 76 -22.4 -8.3
17:40 1013 29.91 842 24.86 -19.4 -3 76 -22.6 -8.7
17:45 1013 29.91 842 24.86 -19.5 -3 77 -22.5 -8.6
17:50 1012 29.88 842 24.86 -18.9 -1.9 74 -22.4 -8.3
17:55 1012 29.88 842 24.86 -18.9 -2 74 -22.4 -8.2
18:00 1012 29.88 842 24.86 -18.4 -1.2 72 -22.4 -8.3
18:05 1012 29.88 842 24.86 -18 -0.4 69 -22.3 -8.2
18:10 1012 29.88 842 24.86 -18.1 -0.5 70 -22.3 -8.1
18:15 1012 29.88 842 24.86 -18.1 -0.6 69 -22.6 -8.6
18:20 1012 29.88 842 24.86 -17.4 0.7 65 -22.5 -8.6
18:25 1012 29.88 842 24.86 -17.1 1.3 66 -22 -7.6
18:30 1012 29.88 842 24.86 -17.4 0.6 67 -22.1 -7.9
18:35 1012 29.88 842 24.86 -17.1 1.2 65 -22.1 -7.8
18:40 1012 29.88 842 24.86 -17 1.4 65 -22.1 -7.8
18:45 1012 29.88 842 24.86 -17.1 1.2 67 -21.9 -7.5
18:50 1012 29.88 842 24.86 -17.5 0.6 66 -22.4 -8.3
18:55 1012 29.88 842 24.86 -17.5 0.6 66 -22.3 -8.2
19:00 1012 29.88 842 24.86 -18 -0.4 69 -22.4 -8.2
19:05 1012 29.88 842 24.86 -18.2 -0.7 69 -22.5 -8.5
19:10 1012 29.88 842 24.86 -17.8 -0.1 68 -22.4 -8.2
19:15 1012 29.88 842 24.86 -18.3 -1 73 -22.1 -7.7
19:20 1012 29.88 842 24.86 -18.2 -0.8 72 -22.1 -7.8
19:25 1013 29.91 842 24.86 -18.5 -1.4 75 -22 -7.5
19:30 1012 29.88 842 24.86 -19.1 -2.4 77 -22.2 -8
19:35 1013 29.91 842 24.86 -18.8 -1.9 73 -22.5 -8.5
19:40 1013 29.91 842 24.86 -17.9 -0.3 67 -22.6 -8.6
19:45 1013 29.91 842 24.86 -17.1 1.2 63 -22.7 -8.8
19:50 1013 29.91 842 24.86 -18 -0.5 66 -22.9 -9.3
19:55 1013 29.91 842 24.86 -18.7 -1.6 76 -21.9 -7.4
20:00 1013 29.91 842 24.86 -18.7 -1.7 71 -22.8 -9
20:05 1013 29.91 842 24.86 -19.1 -2.3 71 -23.1 -9.5
20:10 1013 29.91 842 24.86 -19.1 -2.4 67 -23.7 -10.7
20:15 1013 29.91 842 24.86 -19 -2.2 68 -23.6 -10.5
20:20 1013 29.91 842 24.86 -19.1 -2.3 71 -23.1 -9.6
20:25 1013 29.91 842 24.86 -19.3 -2.8 74 -22.9 -9.2
20:30 1013 29.91 842 24.86 -19.5 -3.2 75 -23 -9.4
20:35 1013 29.91 842 24.86 -19.7 -3.5 80 -22.3 -8.2
20:40 1013 29.91 842 24.86 -19.6 -3.2 76 -22.9 -9.2
20:45 1013 29.91 842 24.86 -19.4 -3 74 -23 -9.4
20:50 1013 29.91 842 24.86 -19.4 -2.9 71 -23.4 -10.2
20:55 1013 29.91 842 24.86 -19.5 -3.1 74 -23 -9.4
21:00 1013 29.91 842 24.86 -19.5 -3.2 73 -23.2 -9.8
21:05 1013 29.91 842 24.86 -19.6 -3.2 74 -23.2 -9.7
21:10 1013 29.91 842 24.86 -19.4 -2.9 75 -22.8 -9.1
21:15 1013 29.91 842 24.86 -19.4 -2.8 77 -22.4 -8.4
21:20 1013 29.91 842 24.86 -19.6 -3.2 78 -22.5 -8.6
21:25 1013 29.91 842 24.86 -19.7 -3.4 76 -22.9 -9.2
21:30 1013 29.91 842 24.86 -19.6 -3.3 72 -23.4 -10.2
21:35 1013 29.91 843 24.89 -19.5 -3.1 77 -22.6 -8.6
21:40 1013 29.91 843 24.89 -19.4 -2.9 74 -23 -9.4
21:45 1014 29.94 843 24.89 -19.4 -2.9 72 -23.3 -9.9
21:50 1014 29.94 843 24.89 -19.1 -2.4 70 -23.3 -9.9
21:55 1014 29.94 843 24.89 -19.6 -3.2 71 -23.5 -10.3
22:00 1014 29.94 843 24.89 -19.7 -3.4 74 -23.2 -9.8
22:05 1014 29.94 843 24.89 -19.6 -3.2 71 -23.6 -10.5
22:10 1014 29.94 843 24.89 -19.6 -3.3 78 -22.5 -8.5
22:15 1013 29.91 843 24.89 -19.7 -3.4 77 -22.8 -9
22:20 1013 29.91 843 24.89 -19.9 -3.7 77 -23 -9.4
22:25 1014 29.94 843 24.89 -20 -4 75 -23.4 -10
22:30 1014 29.94 843 24.89 -20 -3.9 71 -23.9 -11
22:35 1014 29.94 843 24.89 -19.4 -2.9 70 -23.6 -10.5
22:40 1014 29.94 843 24.89 -19.7 -3.5 77 -22.7 -8.9
22:45 1014 29.94 843 24.89 -19.4 -3 73 -23.1 -9.6
22:50 1014 29.94 843 24.89 -19.6 -3.3 73 -23.3 -9.9
22:55 1014 29.94 843 24.89 -19.7 -3.4 68 -24.1 -11.3
23:00 1014 29.94 843 24.89 -19.3 -2.8 64 -24.5 -12.1
23:05 1014 29.94 843 24.89 -19.7 -3.4 73 -23.3 -9.9
23:10 1014 29.94 843 24.89 -19.4 -2.8 68 -23.9 -11
23:15 1014 29.94 843 24.89 -19.4 -2.8 68 -23.8 -10.9
23:20 1014 29.94 843 24.89 -19.9 -3.9 73 -23.6 -10.4
23:25 1014 29.94 843 24.89 -20.1 -4.1 74 -23.6 -10.5
23:30 1014 29.94 843 24.89 -19.8 -3.6 75 -23.2 -9.8
23:35 1014 29.94 843 24.89 -19.6 -3.3 77 -22.6 -8.7
23:40 1014 29.94 843 24.89 -19.7 -3.4 71 -23.7 -10.7
23:45 1014 29.94 843 24.89 -20 -3.9 75 -23.3 -9.9
23:50 1014 29.94 843 24.89 -20.2 -4.4 72 -24 -11.2
23:55 1014 29.94 843 24.89 -20.3 -4.5 77 -23.4 -10.1
24:00 1014 29.94 843 24.89 -20.3 -4.5 73 -23.9 -11